Plentywood (PWD)
Plentywood, MT
Field Elevation: 2251
Lat: 48°47.32N  Long: 104°31.39W
CTAF/Unicom Freq: 122.8000
   
     For Weather-by-Phone, call 406-765-2149
Weather Advisories
2017-12-13   11:04 Z
Altimeter 29.95" Hg
Wind 300° @ 15 KT
Gusts 20 KT
Visibility 10 SM
Temperature 0° C (32° F)
Dewpoint -3° C (27° F)
Relative Humidity 82%
Density Altitude --
Condensation Altitude 3,600 feet
Wind Chill: -6° C (21° F)
Wind and Runways
Indicated Runway = 30
Headwind = 15 kt
Crosswind = 0 kt
History
 
 
 
More Info
NOAA Forecast
 
Airport IQ 5010
(S59) Libby
(6S5) Ravalli County
 
about DigiWx
 
FAA Disclaimer: The data displayed is for advisory purposes only and is not to be used for flight planning or operations. For official data, please call 406-765-2149 to hear the current automated AWOS voice message.
  METAR PWD 131104Z AUTO 30015G20KT VIS 10 SM 00/M03 A2995